Wetterstation Vordersexau
Wetterdaten: Woche 05.11.12 - 11.11.12 (KW45)
Datum Zeit Temp. A. Feuchte A. Luftdruck Regen Wind Richtung Taupunkt Windchill Windben
05.11.2012 00:00 7,9 C 83 % 1001,4 hPa 0,7 l/m 20,1 km/h S-SW 5,2 C 0,5 C 11,2 km/h
05.11.2012 01:00 7,9 C 85 % 1001,6 hPa 0,0 l/m 21,4 km/h W-SW 5,5 C 0,1 C 11,9 km/h
05.11.2012 02:00 8,3 C 80 % 1001,0 hPa 0,0 l/m 3,9 km/h W-SW 5,1 C 8,3 C 2,2 km/h
05.11.2012 03:00 8,3 C 79 % 1001,2 hPa 0,0 l/m 9,1 km/h SW 4,9 C 6,3 C 5,0 km/h
05.11.2012 04:00 8,3 C 82 % 1001,6 hPa 0,0 l/m 7,1 km/h W 5,4 C 7,8 C 4,0 km/h
05.11.2012 05:00 7,3 C 83 % 1001,8 hPa 0,0 l/m 2,6 km/h S-SW 4,6 C 7,3 C 1,4 km/h
05.11.2012 06:00 5,9 C 85 % 1001,5 hPa 0,0 l/m 5,2 km/h W-SW 3,6 C 5,9 C 2,9 km/h
05.11.2012 07:00 6,9 C 84 % 1002,3 hPa 0,0 l/m 7,1 km/h SW 4,4 C 6,3 C 4,0 km/h
05.11.2012 08:00 7,8 C 84 % 1002,5 hPa 0,0 l/m 1,3 km/h W-SW 5,3 C 7,8 C 0,7 km/h
05.11.2012 09:00 9,2 C 79 % 1002,6 hPa 0,0 l/m 26,6 km/h W-SW 5,8 C 0,3 C 14,8 km/h
05.11.2012 10:00 10,1 C 74 % 1002,9 hPa 0,0 l/m 13,6 km/h W 5,7 C 5,9 C 7,6 km/h
05.11.2012 11:00 11,6 C 71 % 1003,3 hPa 0,0 l/m 24,6 km/h W 6,5 C 4,1 C 13,7 km/h
05.11.2012 12:00 10,2 C 74 % 1003,2 hPa 0,0 l/m 18,8 km/h W-SW 5,8 C 3,9 C 10,4 km/h
05.11.2012 13:00 10,6 C 74 % 1003,4 hPa 0,0 l/m 29,2 km/h W 6,2 C 1,7 C 16,2 km/h
05.11.2012 14:00 9,4 C 78 % 1003,8 hPa 0,0 l/m 23,3 km/h W-NW 5,8 C 1,5 C 13,0 km/h
05.11.2012 15:00 9,4 C 80 % 1004,4 hPa 0,0 l/m 15,6 km/h W-NW 6,1 C 4,2 C 8,6 km/h
05.11.2012 16:00 8,4 C 84 % 1005,2 hPa 0,0 l/m 4,5 km/h W 5,9 C 8,4 C 2,5 km/h
05.11.2012 17:00 7,4 C 85 % 1005,8 hPa 0,7 l/m 10,4 km/h W 5,0 C 4,5 C 5,8 km/h
05.11.2012 18:00 7,5 C 84 % 1006,7 hPa 0,0 l/m 3,2 km/h W-SW 5,0 C 7,5 C 1,8 km/h
05.11.2012 19:00 8,1 C 82 % 1007,4 hPa 0,0 l/m 9,7 km/h W 5,2 C 5,7 C 5,4 km/h
05.11.2012 20:00 6,6 C 85 % 1008,5 hPa 0,4 l/m 0,0 km/h W-SW 4,3 C 6,6 C 0,0 km/h
05.11.2012 21:00 7,0 C 85 % 1009,3 hPa 0,0 l/m 23,3 km/h SW 4,7 C -1,7 C 13,0 km/h
05.11.2012 22:00 7,5 C 84 % 1010,0 hPa 0,0 l/m 19,4 km/h W 5,0 C 0,3 C 10,8 km/h
05.11.2012 23:00 7,4 C 84 % 1010,4 hPa 0,0 l/m 4,5 km/h W-SW 4,9 C 7,4 C 2,5 km/h
06.11.2012 00:00 6,7 C 85 % 1010,6 hPa 0,0 l/m 9,1 km/h NO 4,4 C 4,6 C 5,0 km/h
06.11.2012 01:00 6,5 C 85 % 1010,9 hPa 0,0 l/m 0,0 km/h W 4,2 C 6,5 C 0,0 km/h
06.11.2012 02:00 6,2 C 85 % 1011,3 hPa 0,0 l/m 0,0 km/h W 3,9 C 6,2 C 0,0 km/h
06.11.2012 03:00 6,4 C 84 % 1011,2 hPa 0,0 l/m 0,0 km/h NW 3,9 C 6,4 C 0,0 km/h
06.11.2012 04:00 6,3 C 85 % 1011,7 hPa 0,0 l/m 11,0 km/h W-NW 4,0 C 2,9 C 6,1 km/h
06.11.2012 05:00 5,6 C 84 % 1012,8 hPa 0,4 l/m 9,7 km/h W 3,1 C 2,9 C 5,4 km/h
06.11.2012 06:00 5,3 C 85 % 1013,3 hPa 0,0 l/m 0,0 km/h N-NO 3,0 C 5,3 C 0,0 km/h
06.11.2012 07:00 4,9 C 85 % 1013,9 hPa 0,0 l/m 0,0 km/h N 2,6 C 4,9 C 0,0 km/h
06.11.2012 08:00 5,4 C 84 % 1014,9 hPa 0,0 l/m 0,0 km/h SW 2,9 C 5,4 C 0,0 km/h
06.11.2012 09:00 5,9 C 84 % 1015,9 hPa 0,7 l/m 2,6 km/h S 3,4 C 5,9 C 1,4 km/h
06.11.2012 10:00 8,1 C 84 % 1016,5 hPa 0,0 l/m 0,0 km/h N 5,6 C 8,1 C 0,0 km/h
06.11.2012 11:00 8,9 C 80 % 1017,4 hPa 0,0 l/m 0,0 km/h S 5,6 C 8,9 C 0,0 km/h
06.11.2012 12:00 13,2 C 71 % 1017,4 hPa 0,0 l/m 3,2 km/h NO 8,1 C 13,2 C 1,8 km/h
06.11.2012 13:00 14,2 C 56 % 1017,6 hPa 0,0 l/m 0,0 km/h S 5,6 C 14,2 C 0,0 km/h
06.11.2012 14:00 15,3 C 52 % 1017,9 hPa 0,0 l/m 1,9 km/h NO 5,5 C 15,3 C 1,1 km/h
06.11.2012 15:00 14,9 C 48 % 1018,6 hPa 0,0 l/m 1,9 km/h NO 4,0 C 14,9 C 1,1 km/h
06.11.2012 16:00 15,6 C 47 % 1019,0 hPa 0,0 l/m 0,0 km/h NO 4,3 C 15,6 C 0,0 km/h
06.11.2012 17:00 5,6 C 70 % 1019,9 hPa 0,0 l/m 0,0 km/h SO 0,6 C 5,6 C 0,0 km/h
06.11.2012 18:00 3,3 C 81 % 1020,4 hPa 0,0 l/m 0,0 km/h O-SO 0,4 C 3,3 C 0,0 km/h
06.11.2012 19:00 2,9 C 84 % 1021,2 hPa 0,0 l/m 0,0 km/h SO 0,5 C 2,9 C 0,0 km/h
06.11.2012 20:00 3,0 C 85 % 1021,7 hPa 0,0 l/m 0,0 km/h SO 0,7 C 3,0 C 0,0 km/h
06.11.2012 21:00 2,3 C 85 % 1022,5 hPa 0,0 l/m 0,0 km/h SO 0,0 C 2,3 C 0,0 km/h
06.11.2012 22:00 2,4 C 85 % 1022,9 hPa 0,0 l/m 0,0 km/h SO 0,1 C 2,4 C 0,0 km/h
06.11.2012 23:00 1,3 C 85 % 1023,3 hPa 0,0 l/m 0,0 km/h SO -0,9 C 1,3 C 0,0 km/h
07.11.2012 00:00 1,3 C 84 % 1023,6 hPa 0,0 l/m 0,0 km/h SO -1,1 C 1,3 C 0,0 km/h
07.11.2012 01:00 1,9 C 83 % 1024,0 hPa 0,0 l/m 0,0 km/h NO -0,7 C 1,9 C 0,0 km/h
07.11.2012 02:00 2,1 C 82 % 1024,3 hPa 0,0 l/m 0,0 km/h O-SO -0,6 C 2,1 C 0,0 km/h
07.11.2012 03:00 2,8 C 81 % 1024,4 hPa 0,0 l/m 0,0 km/h O-NO -0,1 C 2,8 C 0,0 km/h
07.11.2012 04:00 3,5 C 80 % 1024,8 hPa 0,0 l/m 0,0 km/h W 0,4 C 3,5 C 0,0 km/h
07.11.2012 05:00 4,9 C 80 % 1025,2 hPa 0,0 l/m 13,0 km/h W-NW 1,7 C 0,0 C 7,2 km/h
07.11.2012 06:00 5,8 C 85 % 1025,4 hPa 0,0 l/m 24,0 km/h W-SW 3,5 C -3,5 C 13,3 km/h
07.11.2012 07:00 6,1 C 83 % 1026,0 hPa 0,0 l/m 25,3 km/h W 3,4 C -3,5 C 14,0 km/h
07.11.2012 08:00 6,3 C 83 % 1026,9 hPa 0,0 l/m 17,5 km/h W-SW 3,6 C -0,5 C 9,7 km/h
07.11.2012 09:00 6,9 C 82 % 1027,1 hPa 0,0 l/m 22,7 km/h W 4,0 C -1,7 C 12,6 km/h
07.11.2012 10:00 7,4 C 79 % 1027,6 hPa 0,0 l/m 7,1 km/h W-SW 4,0 C 6,8 C 4,0 km/h
07.11.2012 11:00 8,1 C 75 % 1027,9 hPa 0,0 l/m 22,7 km/h W-SW 3,9 C -0,1 C 12,6 km/h
07.11.2012 12:00 8,3 C 74 % 1027,8 hPa 0,0 l/m 1,9 km/h W-SW 3,9 C 8,3 C 1,1 km/h
07.11.2012 13:00 8,8 C 72 % 1027,6 hPa 0,0 l/m 20,1 km/h W-SW 4,0 C 1,7 C 11,2 km/h
07.11.2012 14:00 9,1 C 72 % 1027,3 hPa 0,0 l/m 11,7 km/h W-SW 4,3 C 5,6 C 6,5 km/h
07.11.2012 15:00 9,2 C 73 % 1027,4 hPa 0,0 l/m 9,7 km/h W-SW 4,6 C 6,9 C 5,4 km/h
07.11.2012 16:00 9,1 C 73 % 1027,2 hPa 0,0 l/m 15,6 km/h W-SW 4,5 C 3,8 C 8,6 km/h
07.11.2012 17:00 8,9 C 74 % 1027,0 hPa 0,0 l/m 0,0 km/h W-SW 4,5 C 8,9 C 0,0 km/h
07.11.2012 18:00 8,7 C 75 % 1027,2 hPa 0,0 l/m 0,0 km/h W-SW 4,5 C 8,7 C 0,0 km/h
07.11.2012 19:00 8,4 C 76 % 1026,9 hPa 0,0 l/m 0,0 km/h W-SW 4,4 C 8,4 C 0,0 km/h
07.11.2012 20:00 7,4 C 79 % 1026,8 hPa 0,0 l/m 0,0 km/h W-SW 4,0 C 7,4 C 0,0 km/h
07.11.2012 21:00 7,1 C 82 % 1026,5 hPa 0,0 l/m 0,0 km/h W-SW 4,2 C 7,1 C 0,0 km/h
07.11.2012 22:00 4,7 C 83 % 1026,0 hPa 0,0 l/m 0,0 km/h O-SO 2,1 C 4,7 C 0,0 km/h
07.11.2012 23:00 3,2 C 85 % 1025,9 hPa 0,0 l/m 0,0 km/h SO 0,9 C 3,2 C 0,0 km/h
08.11.2012 00:00 2,1 C 85 % 1025,6 hPa 0,0 l/m 0,0 km/h SO -0,2 C 2,1 C 0,0 km/h
08.11.2012 01:00 1,8 C 85 % 1025,3 hPa 0,0 l/m 0,0 km/h O-SO -0,4 C 1,8 C 0,0 km/h
08.11.2012 02:00 1,1 C 85 % 1024,6 hPa 0,0 l/m 0,0 km/h O -1,1 C 1,1 C 0,0 km/h
08.11.2012 03:00 0,4 C 84 % 1024,1 hPa 0,0 l/m 0,0 km/h SO -2,0 C 0,4 C 0,0 km/h
08.11.2012 04:00 0,6 C 83 % 1023,6 hPa 0,0 l/m 0,0 km/h S-SO -1,9 C 0,6 C 0,0 km/h
08.11.2012 05:00 1,0 C 83 % 1023,3 hPa 0,0 l/m 0,0 km/h S-SO -1,6 C 1,0 C 0,0 km/h
08.11.2012 06:00 0,9 C 82 % 1022,4 hPa 0,0 l/m 0,0 km/h S-SO -1,8 C 0,9 C 0,0 km/h
08.11.2012 07:00 0,4 C 82 % 1022,1 hPa 0,0 l/m 0,0 km/h S -2,3 C 0,4 C 0,0 km/h
08.11.2012 08:00 1,6 C 80 % 1022,6 hPa 0,0 l/m 0,0 km/h NO -1,5 C 1,6 C 0,0 km/h
08.11.2012 09:00 4,5 C 75 % 1022,5 hPa 0,0 l/m 0,0 km/h NW 0,5 C 4,5 C 0,0 km/h
08.11.2012 10:00 6,9 C 83 % 1021,6 hPa 0,0 l/m 0,0 km/h W 4,2 C 6,9 C 0,0 km/h
08.11.2012 11:00 7,2 C 85 % 1021,4 hPa 0,0 l/m 0,6 km/h NO 4,9 C 7,2 C 0,4 km/h
08.11.2012 12:00 10,9 C 77 % 1020,0 hPa 0,0 l/m 0,0 km/h S 7,0 C 10,9 C 0,0 km/h
08.11.2012 13:00 10,8 C 75 % 1018,7 hPa 0,0 l/m 0,0 km/h NO 6,5 C 10,8 C 0,0 km/h
08.11.2012 14:00 10,9 C 73 % 1018,0 hPa 0,0 l/m 0,0 km/h N-NO 6,3 C 10,9 C 0,0 km/h
08.11.2012 15:00 10,7 C 72 % 1017,7 hPa 0,0 l/m 1,9 km/h NO 5,9 C 10,7 C 1,1 km/h
08.11.2012 16:00 9,2 C 75 % 1017,9 hPa 0,0 l/m 0,0 km/h NO 5,0 C 9,2 C 0,0 km/h
08.11.2012 17:00 6,9 C 82 % 1018,1 hPa 0,0 l/m 0,0 km/h NO 4,0 C 6,9 C 0,0 km/h
08.11.2012 18:00 6,2 C 83 % 1018,0 hPa 0,0 l/m 1,9 km/h O-SO 3,5 C 6,2 C 1,1 km/h
08.11.2012 19:00 5,9 C 84 % 1018,2 hPa 0,0 l/m 0,0 km/h SO 3,4 C 5,9 C 0,0 km/h
08.11.2012 20:00 5,8 C 84 % 1018,2 hPa 0,0 l/m 0,0 km/h O-NO 3,3 C 5,8 C 0,0 km/h
08.11.2012 21:00 5,5 C 85 % 1018,2 hPa 0,0 l/m 0,0 km/h NO 3,2 C 5,5 C 0,0 km/h
08.11.2012 22:00 5,9 C 85 % 1017,9 hPa 0,0 l/m 0,0 km/h O-SO 3,6 C 5,9 C 0,0 km/h
08.11.2012 23:00 4,4 C 85 % 1018,2 hPa 0,0 l/m 0,0 km/h SO 2,1 C 4,4 C 0,0 km/h
09.11.2012 00:00 3,0 C 85 % 1018,3 hPa 0,0 l/m 0,0 km/h SO 0,7 C 3,0 C 0,0 km/h
09.11.2012 01:00 2,4 C 84 % 1017,7 hPa 0,0 l/m 0,0 km/h SO -0,0 C 2,4 C 0,0 km/h
09.11.2012 02:00 1,9 C 83 % 1017,7 hPa 0,0 l/m 0,0 km/h O-NO -0,7 C 1,9 C 0,0 km/h
09.11.2012 03:00 1,5 C 83 % 1017,4 hPa 0,0 l/m 0,0 km/h O-SO -1,1 C 1,5 C 0,0 km/h
09.11.2012 04:00 1,4 C 82 % 1017,4 hPa 0,0 l/m 0,0 km/h SO -1,3 C 1,4 C 0,0 km/h
09.11.2012 05:00 0,7 C 82 % 1017,4 hPa 0,0 l/m 0,0 km/h SO -2,0 C 0,7 C 0,0 km/h
09.11.2012 06:00 0,1 C 82 % 1017,2 hPa 0,0 l/m 0,0 km/h SO -2,6 C 0,1 C 0,0 km/h
09.11.2012 07:00 -0,2 C 81 % 1017,4 hPa 0,0 l/m 0,0 km/h SO -3,1 C -0,2 C 0,0 km/h
09.11.2012 08:00 2,5 C 74 % 1017,2 hPa 0,0 l/m 0,0 km/h SO -1,7 C 2,5 C 0,0 km/h
09.11.2012 09:00 7,0 C 82 % 1017,1 hPa 0,0 l/m 0,0 km/h NW 4,1 C 7,0 C 0,0 km/h
09.11.2012 10:00 8,4 C 85 % 1016,6 hPa 0,0 l/m 0,0 km/h NW 6,0 C 8,4 C 0,0 km/h
09.11.2012 11:00 11,5 C 77 % 1016,4 hPa 0,0 l/m 0,0 km/h N-NO 7,6 C 11,5 C 0,0 km/h
09.11.2012 12:00 13,8 C 67 % 1014,9 hPa 0,0 l/m 0,0 km/h W-NW 7,8 C 13,8 C 0,0 km/h
09.11.2012 13:00 14,3 C 65 % 1013,6 hPa 0,0 l/m 0,0 km/h N-NO 7,8 C 14,3 C 0,0 km/h
09.11.2012 14:00 14,3 C 63 % 1012,8 hPa 0,0 l/m 1,9 km/h N-NW 7,4 C 14,3 C 1,1 km/h
09.11.2012 15:00 14,4 C 65 % 1011,5 hPa 0,0 l/m 0,0 km/h W-NW 7,9 C 14,4 C 0,0 km/h
09.11.2012 16:00 15,0 C 61 % 1011,9 hPa 0,0 l/m 0,6 km/h SO 7,5 C 15,0 C 0,4 km/h
09.11.2012 17:00 7,5 C 77 % 1011,0 hPa 0,0 l/m 0,0 km/h NO 3,7 C 7,5 C 0,0 km/h
09.11.2012 18:00 5,4 C 83 % 1009,9 hPa 0,0 l/m 0,0 km/h O-NO 2,7 C 5,4 C 0,0 km/h
09.11.2012 19:00 4,8 C 85 % 1010,0 hPa 0,0 l/m 0,0 km/h O-SO 2,5 C 4,8 C 0,0 km/h
09.11.2012 20:00 5,5 C 84 % 1010,3 hPa 0,0 l/m 0,0 km/h N-NO 3,0 C 5,5 C 0,0 km/h
09.11.2012 21:00 6,4 C 83 % 1010,5 hPa 0,0 l/m 0,0 km/h O 3,7 C 6,4 C 0,0 km/h
09.11.2012 22:00 7,5 C 83 % 1009,6 hPa 0,0 l/m 0,0 km/h S-SO 4,8 C 7,5 C 0,0 km/h
09.11.2012 23:00 7,8 C 84 % 1009,2 hPa 0,0 l/m 11,0 km/h O 5,3 C 4,6 C 6,1 km/h
10.11.2012 00:00 7,4 C 85 % 1008,5 hPa 0,0 l/m 0,0 km/h O 5,0 C 7,4 C 0,0 km/h
10.11.2012 01:00 7,4 C 84 % 1008,0 hPa 0,0 l/m 0,0 km/h SO 4,9 C 7,4 C 0,0 km/h
10.11.2012 02:00 7,3 C 84 % 1007,4 hPa 0,0 l/m 0,0 km/h SO 4,8 C 7,3 C 0,0 km/h
10.11.2012 03:00 7,6 C 83 % 1006,3 hPa 0,0 l/m 0,0 km/h SO 4,9 C 7,6 C 0,0 km/h
10.11.2012 04:00 7,9 C 82 % 1005,8 hPa 0,0 l/m 0,0 km/h NW 5,0 C 7,9 C 0,0 km/h
10.11.2012 05:00 7,6 C 83 % 1005,1 hPa 0,0 l/m 2,6 km/h W-NW 4,9 C 7,6 C 1,4 km/h
10.11.2012 06:00 7,8 C 82 % 1004,9 hPa 0,0 l/m 0,0 km/h NO 4,9 C 7,8 C 0,0 km/h
10.11.2012 07:00 8,2 C 82 % 1005,3 hPa 0,0 l/m 0,0 km/h SO 5,3 C 8,2 C 0,0 km/h
10.11.2012 08:00 8,9 C 79 % 1004,4 hPa 0,7 l/m 0,0 km/h SO 5,5 C 8,9 C 0,0 km/h
10.11.2012 09:00 9,8 C 76 % 1003,8 hPa 0,7 l/m 0,0 km/h S-SO 5,8 C 9,8 C 0,0 km/h
10.11.2012 10:00 10,7 C 74 % 1003,6 hPa 0,4 l/m 0,0 km/h S-SO 6,3 C 10,7 C 0,0 km/h
10.11.2012 11:00 11,6 C 72 % 1003,4 hPa 1,8 l/m 2,6 km/h S 6,7 C 11,6 C 1,4 km/h
10.11.2012 12:00 12,5 C 73 % 1002,8 hPa 1,1 l/m 0,0 km/h O-NO 7,8 C 12,5 C 0,0 km/h
10.11.2012 13:00 13,4 C 80 % 1002,2 hPa 0,4 l/m 0,0 km/h SO 10,0 C 13,4 C 0,0 km/h
10.11.2012 14:00 13,0 C 83 % 1001,5 hPa 0,4 l/m 0,0 km/h O-SO 10,2 C 13,0 C 0,0 km/h
10.11.2012 15:00 12,4 C 82 % 1000,9 hPa 0,0 l/m 0,0 km/h S-SO 9,4 C 12,4 C 0,0 km/h
10.11.2012 16:00 12,1 C 80 % 1001,9 hPa 1,8 l/m 7,8 km/h O-NO 8,8 C 11,2 C 4,3 km/h
10.11.2012 17:00 11,4 C 77 % 1002,0 hPa 0,4 l/m 0,0 km/h S-SO 7,5 C 11,4 C 0,0 km/h
10.11.2012 18:00 11,8 C 80 % 1001,5 hPa 0,0 l/m 16,8 km/h W-SW 8,5 C 6,7 C 9,4 km/h
10.11.2012 19:00 12,4 C 84 % 1001,5 hPa 0,4 l/m 1,9 km/h O-SO 9,8 C 12,4 C 1,1 km/h
10.11.2012 20:00 10,9 C 84 % 1002,1 hPa 0,0 l/m 7,1 km/h W-NW 8,3 C 10,4 C 4,0 km/h
10.11.2012 21:00 12,1 C 83 % 1002,9 hPa 0,4 l/m 0,0 km/h NO 9,3 C 12,1 C 0,0 km/h
10.11.2012 22:00 10,4 C 85 % 1004,0 hPa 0,4 l/m 0,0 km/h NO 8,0 C 10,4 C 0,0 km/h
10.11.2012 23:00 10,1 C 82 % 1004,0 hPa 0,4 l/m 9,1 km/h NO 7,2 C 8,2 C 5,0 km/h
11.11.2012 00:00 9,8 C 79 % 1004,1 hPa 0,0 l/m 0,0 km/h NO 6,3 C 9,8 C 0,0 km/h
11.11.2012 01:00 9,4 C 78 % 1004,0 hPa 0,0 l/m 0,0 km/h O-SO 5,8 C 9,4 C 0,0 km/h
11.11.2012 02:00 9,1 C 76 % 1003,9 hPa 0,0 l/m 0,0 km/h O-SO 5,1 C 9,1 C 0,0 km/h
11.11.2012 03:00 8,9 C 75 % 1004,3 hPa 0,0 l/m 0,0 km/h SO 4,7 C 8,9 C 0,0 km/h
11.11.2012 04:00 8,6 C 74 % 1004,3 hPa 0,0 l/m 0,0 km/h SO 4,2 C 8,6 C 0,0 km/h
11.11.2012 05:00 8,6 C 73 % 1004,6 hPa 0,0 l/m 0,0 km/h SO 4,0 C 8,6 C 0,0 km/h
11.11.2012 06:00 8,7 C 72 % 1005,3 hPa 0,0 l/m 6,5 km/h SO 3,9 C 8,6 C 3,6 km/h
11.11.2012 07:00 8,8 C 70 % 1005,9 hPa 0,4 l/m 0,0 km/h O-SO 3,6 C 8,8 C 0,0 km/h
11.11.2012 08:00 8,9 C 69 % 1006,6 hPa 0,4 l/m 0,0 km/h SO 3,5 C 8,9 C 0,0 km/h
11.11.2012 09:00 9,4 C 68 % 1007,1 hPa 0,4 l/m 0,0 km/h SO 3,8 C 9,4 C 0,0 km/h
11.11.2012 10:00 9,8 C 67 % 1007,7 hPa 0,7 l/m 0,0 km/h N-NW 4,0 C 9,8 C 0,0 km/h
11.11.2012 11:00 9,9 C 65 % 1008,0 hPa 0,7 l/m 0,0 km/h N-NW 3,6 C 9,9 C 0,0 km/h
11.11.2012 12:00 9,5 C 67 % 1009,2 hPa 1,1 l/m 0,0 km/h O-NO 3,7 C 9,5 C 0,0 km/h
11.11.2012 13:00 9,1 C 70 % 1010,0 hPa 1,4 l/m 0,0 km/h W 3,9 C 9,1 C 0,0 km/h
11.11.2012 14:00 9,3 C 70 % 1010,4 hPa 0,7 l/m 0,0 km/h N 4,1 C 9,3 C 0,0 km/h
11.11.2012 15:00 9,1 C 70 % 1011,2 hPa 0,4 l/m 0,0 km/h NW 3,9 C 9,1 C 0,0 km/h
11.11.2012 16:00 9,0 C 71 % 1012,2 hPa 0,0 l/m 0,0 km/h W-NW 4,0 C 9,0 C 0,0 km/h
11.11.2012 17:00 8,7 C 70 % 1013,1 hPa 0,0 l/m 0,0 km/h W 3,5 C 8,7 C 0,0 km/h
11.11.2012 18:00 8,4 C 70 % 1014,3 hPa 0,0 l/m 0,0 km/h W 3,3 C 8,4 C 0,0 km/h
11.11.2012 19:00 8,4 C 69 % 1015,6 hPa 0,0 l/m 0,0 km/h W 3,0 C 8,4 C 0,0 km/h
11.11.2012 20:00 8,2 C 69 % 1016,3 hPa 0,0 l/m 0,0 km/h W 2,9 C 8,2 C 0,0 km/h
11.11.2012 21:00 8,3 C 69 % 1017,4 hPa 0,0 l/m 0,0 km/h W 3,0 C 8,3 C 0,0 km/h
11.11.2012 22:00 8,1 C 68 % 1018,2 hPa 0,0 l/m 0,0 km/h W 2,6 C 8,1 C 0,0 km/h
11.11.2012 23:00 8,1 C 68 % 1018,7 hPa 0,0 l/m 0,0 km/h N-NW 2,6 C 8,1 C 0,0 km/h
Min-Datum _ 09.11.12 06.11.12 10.11.12 - 05.11.12 - 09.11.12 07.11.12 05.11.12
_ Min-Zeit 07:19 16:19 15:19 - 20:19 - 07:19 06:19 20:19
Minimum _ -0,2 C 47 % 1000,9 hPa - 0,0 km/h - -3,1 C -3,5 C 0,0 km/h
Max-Datum _ 06.11.12 05.11.12 07.11.12 10.11.12 05.11.12 - 10.11.12 06.11.12 05.11.12
_ Max-Zeit 16:19 01:19 11:19 11:19 13:19 - 14:19 16:19 13:19
Maximum _ 15,6 C 85 % 1027,9 hPa 1,8 l/m 29,2 km/h
W
- 10,2 C 15,6 C 16,2 km/h
W
Durchschnitt _ 7,5 C 78 % 1013,7 hPa #17,8 l/m 3,6 km/h SO 3,9 C 6,4 C 2,0 km/h
www.sexauwetter.de